Time;durP1;ratioP1;P1;durP2;ratioP2;P2;SDS_P1;SDS_P2;PMS_P1;PMS_P2;Temp;Humidity;BMP_temperature;BMP_pressure;BME280_temperature;BME280_humidity;BME280_pressure;Samples;Min_cycle;Max_cycle;Signal;HPM_P1;HPM_P2
2021/12/10 00:01:11;;;;;;;93.95;39.10;;;;;;;2.22;100.00;100098.56;10119456;28;20166;-71
2021/12/10 00:06:14;;;;;;;88.60;36.60;;;;;;;2.27;100.00;100082.34;10113624;28;20105;-71
2021/12/10 00:11:34;;;;;;;93.87;37.50;;;;;;;2.22;100.00;100072.38;10111797;28;20101;-71
2021/12/10 00:16:32;;;;;;;88.25;36.97;;;;;;;2.21;100.00;100070.00;10119409;28;20096;-71
2021/12/10 00:21:29;;;;;;;97.82;38.50;;;;;;;2.28;100.00;100060.50;10108473;28;20097;-72
2021/12/10 00:26:27;;;;;;;86.47;35.83;;;;;;;2.10;100.00;100053.03;10113898;28;20105;-71
2021/12/10 00:31:42;;;;;;;87.05;38.15;;;;;;;2.23;100.00;100060.53;10111706;28;20138;-71
2021/12/10 00:36:40;;;;;;;87.95;33.90;;;;;;;2.22;100.00;100045.41;10102982;28;20058;-70
2021/12/10 00:41:37;;;;;;;100.78;40.40;;;;;;;2.21;100.00;100038.41;10106378;28;20038;-72
2021/12/10 00:46:35;;;;;;;94.30;40.50;;;;;;;2.24;100.00;100031.66;10109426;28;20078;-71
2021/12/10 00:51:31;;;;;;;92.28;40.10;;;;;;;2.19;100.00;100013.63;10118965;28;20496;-70
2021/12/10 00:56:28;;;;;;;95.32;39.55;;;;;;;2.14;100.00;100020.94;10110294;28;20050;-70
2021/12/10 01:01:28;;;;;;;90.47;36.03;;;;;;;2.15;100.00;100012.56;10109217;28;20102;-71
2021/12/10 01:06:26;;;;;;;90.53;37.45;;;;;;;2.25;100.00;100007.09;10107858;28;20043;-72
2021/12/10 01:11:30;;;;;;;91.50;37.25;;;;;;;2.28;100.00;100011.94;10106546;28;20512;-71
2021/12/10 01:31:45;;;;;;;94.20;38.22;;;;;;;2.24;100.00;99989.31;10109695;28;20398;-71
2021/12/10 01:36:42;;;;;;;88.70;36.08;;;;;;;2.18;100.00;99995.84;10105546;28;20564;-71
2021/12/10 01:41:42;;;;;;;83.53;35.47;;;;;;;2.32;100.00;99969.00;10102452;28;20386;-72
2021/12/10 01:46:40;;;;;;;89.05;35.80;;;;;;;2.35;100.00;99962.28;10113487;28;20517;-72
2021/12/10 01:51:38;;;;;;;82.93;35.25;;;;;;;2.22;100.00;99953.72;10108083;28;20469;-70
2021/12/10 01:56:37;;;;;;;83.55;34.63;;;;;;;2.18;100.00;99947.28;10108865;28;20047;-71
2021/12/10 02:01:41;;;;;;;91.13;37.60;;;;;;;2.14;100.00;99935.44;10106664;28;20051;-67
2021/12/10 02:06:39;;;;;;;88.30;34.10;;;;;;;1.98;100.00;99936.63;10106804;28;20516;-71
2021/12/10 02:11:36;;;;;;;84.22;35.17;;;;;;;2.07;100.00;99935.75;10117903;28;20150;-71
2021/12/10 02:16:33;;;;;;;83.75;35.17;;;;;;;2.12;100.00;99937.59;10108204;28;20106;-71
2021/12/10 02:21:33;;;;;;;88.38;37.60;;;;;;;2.09;100.00;99927.38;10115996;28;20569;-71
2021/12/10 02:26:37;;;;;;;90.97;36.25;;;;;;;1.99;100.00;99922.06;10102212;28;20081;-71
2021/12/10 02:31:35;;;;;;;85.63;36.30;;;;;;;2.08;100.00;99920.38;10108162;28;20050;-71
2021/12/10 02:36:32;;;;;;;81.18;36.15;;;;;;;2.11;100.00;99919.78;10108686;28;20563;-70
2021/12/10 02:41:30;;;;;;;82.70;35.03;;;;;;;2.09;100.00;99906.63;10104910;28;20047;-70
2021/12/10 02:46:28;;;;;;;81.00;35.00;;;;;;;2.10;100.00;99902.03;10107534;28;20105;-70
2021/12/10 02:51:26;;;;;;;85.13;35.10;;;;;;;2.12;100.00;99909.84;10112265;28;20058;-69
2021/12/10 02:56:23;;;;;;;83.00;33.22;;;;;;;2.14;100.00;99907.66;10110441;28;20125;-70
2021/12/10 03:01:20;;;;;;;82.07;33.17;;;;;;;2.17;100.00;99907.91;10113481;28;20807;-71
2021/12/10 03:06:19;;;;;;;79.05;32.95;;;;;;;2.23;100.00;99912.19;10116248;28;20054;-69
2021/12/10 03:11:22;;;;;;;75.88;31.65;;;;;;;2.26;100.00;99891.91;10111855;28;20054;-71
2021/12/10 03:16:19;;;;;;;78.72;34.60;;;;;;;2.08;100.00;99893.41;10120291;28;20050;-72
2021/12/10 03:21:16;;;;;;;82.00;34.38;;;;;;;2.09;100.00;99895.03;10115198;28;20133;-72
2021/12/10 03:26:17;;;;;;;81.88;34.13;;;;;;;2.04;100.00;99897.75;10111318;28;20038;-71
2021/12/10 03:31:15;;;;;;;81.65;33.70;;;;;;;2.01;100.00;99893.72;10109722;28;20093;-71
2021/12/10 03:36:12;;;;;;;83.65;34.13;;;;;;;2.14;100.00;99896.88;10110613;28;20061;-72
2021/12/10 03:41:10;;;;;;;78.93;34.95;;;;;;;2.23;100.00;99896.00;10117302;28;20564;-72
2021/12/10 03:46:07;;;;;;;74.55;31.60;;;;;;;2.16;100.00;99890.13;10109782;28;20055;-72
2021/12/10 03:51:07;;;;;;;74.38;32.28;;;;;;;2.22;100.00;99883.56;10108766;28;20095;-72
2021/12/10 03:56:08;;;;;;;75.80;33.83;;;;;;;2.20;100.00;99891.13;10095726;28;20050;-72
2021/12/10 04:01:08;;;;;;;86.22;34.20;;;;;;;2.08;100.00;99885.31;10116073;28;20551;-72
2021/12/10 04:06:06;;;;;;;75.75;31.52;;;;;;;2.13;100.00;99874.47;10113966;28;20049;-70
2021/12/10 04:11:04;;;;;;;73.85;33.45;;;;;;;2.22;100.00;99872.00;10105560;28;20070;-70
2021/12/10 04:16:02;;;;;;;73.70;31.35;;;;;;;2.10;100.00;99875.06;10110018;28;20038;-70
2021/12/10 04:20:59;;;;;;;74.10;30.42;;;;;;;2.19;100.00;99867.97;10115223;28;20049;-71
2021/12/10 04:25:56;;;;;;;77.32;31.08;;;;;;;1.98;100.00;99878.09;10119440;28;20464;-71
2021/12/10 04:30:53;;;;;;;72.28;31.33;;;;;;;2.09;100.00;99862.66;10104179;28;20113;-71
2021/12/10 04:35:52;;;;;;;75.68;30.00;;;;;;;1.99;100.00;99862.72;10104341;28;20126;-71
2021/12/10 04:40:51;;;;;;;72.05;29.10;;;;;;;2.09;100.00;99857.28;10110577;28;20078;-70
2021/12/10 04:45:50;;;;;;;69.38;30.17;;;;;;;2.12;100.00;99856.69;10114290;28;20086;-70
2021/12/10 04:50:47;;;;;;;64.75;28.52;;;;;;;2.09;100.00;99846.50;10120495;28;20060;-70
2021/12/10 04:55:44;;;;;;;74.40;28.40;;;;;;;1.88;100.00;99846.66;10110471;28;20130;-72
2021/12/10 05:00:47;;;;;;;71.13;31.02;;;;;;;2.03;100.00;99831.44;10104736;28;20501;-70
2021/12/10 05:05:46;;;;;;;70.18;30.60;;;;;;;1.95;100.00;99834.72;10111769;28;20050;-71
2021/12/10 05:10:42;;;;;;;71.45;30.02;;;;;;;2.10;100.00;99827.31;10108342;28;20062;-71
2021/12/10 05:15:43;;;;;;;78.63;30.38;;;;;;;1.91;100.00;99822.91;10103730;28;20517;-71
2021/12/10 05:20:43;;;;;;;72.93;28.55;;;;;;;1.86;100.00;99816.47;10084923;28;20053;-71
2021/12/10 05:25:39;;;;;;;67.50;28.15;;;;;;;1.85;100.00;99812.16;10090975;28;20081;-71
2021/12/10 05:30:37;;;;;;;65.38;27.15;;;;;;;2.02;100.00;99805.53;10099373;28;20051;-71
2021/12/10 05:35:34;;;;;;;72.60;30.38;;;;;;;2.09;100.00;99800.66;10103212;28;20053;-70
2021/12/10 05:40:31;;;;;;;66.90;28.13;;;;;;;2.06;100.00;99790.41;10108651;28;20049;-71
2021/12/10 05:45:27;;;;;;;60.67;27.25;;;;;;;2.14;100.00;99784.41;10100632;28;20416;-70
2021/12/10 05:50:27;;;;;;;67.90;29.48;;;;;;;2.14;100.00;99787.09;10107661;28;20485;-69
2021/12/10 05:55:24;;;;;;;67.38;28.60;;;;;;;2.12;100.00;99780.41;10104812;28;20112;-71
2021/12/10 06:00:27;;;;;;;64.25;28.65;;;;;;;2.14;100.00;99767.44;10101295;28;20133;-70
2021/12/10 06:05:24;;;;;;;65.53;28.65;;;;;;;2.02;100.00;99768.63;10095970;28;20082;-71
2021/12/10 06:10:22;;;;;;;68.60;29.58;;;;;;;1.86;100.00;99757.16;10089691;28;20112;-71
2021/12/10 06:15:21;;;;;;;67.72;28.58;;;;;;;1.68;100.00;99755.97;10089660;28;20055;-71
2021/12/10 06:20:22;;;;;;;70.53;29.17;;;;;;;1.57;100.00;99756.31;10092281;28;20093;-72
2021/12/10 06:25:18;;;;;;;77.85;31.88;;;;;;;1.40;100.00;99749.44;10113997;28;20481;-72
2021/12/10 06:30:19;;;;;;;69.82;29.95;;;;;;;1.36;100.00;99747.59;10104650;28;20142;-72
2021/12/10 06:35:16;;;;;;;74.82;31.08;;;;;;;1.20;100.00;99744.19;10108590;28;20134;-72
2021/12/10 06:40:17;;;;;;;78.72;31.83;;;;;;;1.16;100.00;99748.50;10107148;28;20070;-72
2021/12/10 06:45:16;;;;;;;76.55;29.48;;;;;;;1.01;100.00;99752.91;10109636;28;20520;-72
2021/12/10 06:50:18;;;;;;;82.32;32.72;;;;;;;1.20;100.00;99760.34;10110483;28;20082;-72
2021/12/10 06:55:16;;;;;;;77.18;30.85;;;;;;;1.23;100.00;99757.91;10110225;28;20047;-72
2021/12/10 07:00:41;;;;;;;66.47;28.48;;;;;;;1.29;100.00;99755.97;10100641;28;20070;-72
2021/12/10 07:05:38;;;;;;;74.43;30.48;;;;;;;1.36;100.00;99756.47;10108890;28;20047;-72
2021/12/10 07:10:35;;;;;;;74.28;30.85;;;;;;;1.40;100.00;99756.72;10112836;28;20078;-72
2021/12/10 07:15:33;;;;;;;73.38;27.67;;;;;;;1.38;100.00;99745.41;10106272;28;20043;-72
2021/12/10 07:20:30;;;;;;;71.45;30.13;;;;;;;1.42;100.00;99747.28;10104956;28;20054;-71
2021/12/10 07:25:27;;;;;;;74.97;30.23;;;;;;;1.53;100.00;99749.88;10117759;28;20449;-71
2021/12/10 07:30:26;;;;;;;74.43;30.95;;;;;;;1.47;100.00;99760.69;10110896;28;20522;-72
2021/12/10 07:35:24;;;;;;;74.50;30.00;;;;;;;1.54;100.00;99748.81;10093695;28;20083;-72
2021/12/10 07:40:23;;;;;;;78.18;31.10;;;;;;;1.66;100.00;99754.63;10097553;28;20109;-72
2021/12/10 07:45:22;;;;;;;68.68;30.05;;;;;;;1.57;100.00;99745.53;10093805;28;20086;-72
2021/12/10 07:50:23;;;;;;;72.57;28.63;;;;;;;1.73;100.00;99741.63;10086640;28;20082;-72
2021/12/10 07:55:22;;;;;;;68.73;28.73;;;;;;;1.79;100.00;99737.81;10090245;28;20105;-72
2021/12/10 08:00:21;;;;;;;62.70;28.88;;;;;;;1.78;100.00;99744.28;10097372;28;20089;-72
2021/12/10 08:05:21;;;;;;;74.13;29.73;;;;;;;1.67;100.00;99731.97;10104539;28;20551;-72
2021/12/10 08:10:18;;;;;;;65.55;27.45;;;;;;;1.84;100.00;99732.38;10109533;28;20093;-72
2021/12/10 08:15:15;;;;;;;75.85;29.83;;;;;;;1.95;100.00;99729.56;10113983;28;20081;-72
2021/12/10 08:20:19;;;;;;;69.18;29.05;;;;;;;1.85;100.00;99736.66;10111570;28;20496;-72
2021/12/10 08:25:16;;;;;;;;;;;;;;;1.88;100.00;99728.03;10112118;28;20105;-72
2021/12/10 08:30:15;;;;;;;61.58;27.23;;;;;;;1.95;100.00;99726.88;10115785;28;19965;-72
2021/12/10 08:35:19;;;;;;;68.22;29.25;;;;;;;2.05;100.00;99726.78;10104913;28;20105;-72
2021/12/10 08:40:24;;;;;;;65.00;26.98;;;;;;;2.13;100.00;99734.25;10107661;28;20050;-72
2021/12/10 08:45:23;;;;;;;62.30;26.33;;;;;;;1.88;100.00;99732.59;10093800;28;20047;-73
2021/12/10 08:50:23;;;;;;;61.22;26.20;;;;;;;2.08;100.00;99727.00;10095348;28;20510;-72
2021/12/10 08:55:20;;;;;;;64.45;25.42;;;;;;;2.06;100.00;99729.19;10086815;28;20051;-72
2021/12/10 09:00:20;;;;;;;67.88;28.13;;;;;;;2.12;100.00;99724.56;10100058;28;20055;-71
2021/12/10 09:05:17;;;;;;;63.70;27.35;;;;;;;2.25;100.00;99721.19;10103792;28;20130;-72
2021/12/10 09:10:18;;;;;;;64.38;27.52;;;;;;;2.25;100.00;99721.19;10106793;28;20043;-72
2021/12/10 09:15:18;;;;;;;58.45;26.02;;;;;;;2.21;100.00;99725.53;10106727;28;20070;-72
2021/12/10 09:20:25;;;;;;;57.47;24.20;;;;;;;2.34;100.00;99715.16;10106211;28;20078;-72
2021/12/10 09:25:23;;;;;;;60.42;24.90;;;;;;;2.42;100.00;99719.94;10108388;28;20062;-72
2021/12/10 09:30:21;;;;;;;58.10;24.25;;;;;;;2.42;100.00;99709.94;10107974;28;20564;-72
2021/12/10 09:35:21;;;;;;;60.55;24.67;;;;;;;2.50;100.00;99716.56;10107631;28;20533;-72
2021/12/10 09:40:26;;;;;;;60.83;26.55;;;;;;;2.45;100.00;99709.34;10104058;28;20058;-72
2021/12/10 09:45:25;;;;;;;58.95;25.98;;;;;;;2.56;100.00;99699.25;10102212;28;20453;-72
2021/12/10 09:50:26;;;;;;;60.70;24.83;;;;;;;2.66;100.00;99695.59;10095679;28;20051;-72
2021/12/10 09:55:23;;;;;;;53.28;23.02;;;;;;;2.67;100.00;99684.53;10105808;28;20042;-72
2021/12/10 10:00:44;;;;;;;49.47;22.38;;;;;;;2.82;100.00;99685.41;10097566;28;20568;-72
2021/12/10 10:05:45;;;;;;;51.17;23.08;;;;;;;2.84;100.00;99686.72;10095463;28;20043;-72
2021/12/10 10:10:45;;;;;;;52.53;22.88;;;;;;;2.76;100.00;99675.75;10116569;28;20078;-71
2021/12/10 10:15:45;;;;;;;52.70;23.75;;;;;;;2.89;100.00;99675.03;10086382;28;20059;-72
2021/12/10 10:20:47;;;;;;;49.97;22.75;;;;;;;2.90;100.00;99676.63;10089273;28;20134;-71
2021/12/10 10:25:51;;;;;;;56.88;24.67;;;;;;;2.98;100.00;99670.59;10099362;28;20134;-72
2021/12/10 10:31:00;;;;;;;51.17;22.05;;;;;;;2.78;100.00;99657.38;10110682;28;20055;-72
2021/12/10 10:36:01;;;;;;;53.85;22.40;;;;;;;3.02;100.00;99652.72;10102325;28;20035;-72
2021/12/10 10:41:04;;;;;;;54.67;22.75;;;;;;;2.95;100.00;99636.88;10099220;28;20390;-71
2021/12/10 10:46:01;;;;;;;54.90;22.58;;;;;;;2.89;100.00;99637.25;10108692;28;20505;-71
2021/12/10 10:51:07;;;;;;;55.15;23.65;;;;;;;3.05;100.00;99630.50;10110908;28;20138;-72
2021/12/10 10:56:08;;;;;;;48.40;23.60;;;;;;;3.24;100.00;99626.97;10107699;28;20042;-72
2021/12/10 11:01:20;;;;;;;51.25;22.20;;;;;;;3.30;100.00;99628.50;10090132;28;20513;-71
2021/12/10 11:06:40;;;;;;;48.83;19.40;;;;;;;3.08;100.00;99634.53;10101992;28;20133;-72
2021/12/10 11:11:45;;;;;;;43.28;20.83;;;;;;;3.16;100.00;99631.97;10107808;28;20043;-72
2021/12/10 11:16:45;;;;;;;46.30;20.13;;;;;;;3.31;100.00;99622.00;10097487;28;20059;-72
2021/12/10 11:21:49;;;;;;;47.22;20.50;;;;;;;3.47;100.00;99622.53;10101379;28;20416;-72
2021/12/10 11:26:53;;;;;;;43.10;20.30;;;;;;;3.50;100.00;99613.81;10106798;28;20094;-72
2021/12/10 11:32:00;;;;;;;42.70;19.48;;;;;;;3.44;100.00;99610.44;10114741;28;20043;-72
2021/12/10 11:36:56;;;;;;;41.25;19.88;;;;;;;3.63;100.00;99612.25;10124890;28;20517;-72
2021/12/10 11:41:55;;;;;;;49.40;21.98;;;;;;;3.67;100.00;99613.28;10121795;28;20488;-72
2021/12/10 11:47:25;;;;;;;44.42;19.33;;;;;;;3.66;100.00;99611.66;10100663;28;20113;-72
2021/12/10 11:52:25;;;;;;;44.03;18.23;;;;;;;3.45;100.00;99606.63;10112411;28;20050;-72
2021/12/10 11:57:26;;;;;;;46.00;20.35;;;;;;;3.52;100.00;99609.72;10127745;28;20046;-72
2021/12/10 12:02:37;;;;;;;47.78;19.95;;;;;;;3.70;100.00;99612.66;10124456;28;20075;-72
2021/12/10 12:07:38;;;;;;;43.83;19.50;;;;;;;3.70;100.00;99607.25;10131781;28;20069;-72
2021/12/10 12:12:40;;;;;;;46.45;19.45;;;;;;;3.55;100.00;99611.84;10129540;28;20077;-72
2021/12/10 12:17:38;;;;;;;49.65;22.15;;;;;;;3.63;100.00;99618.47;10122375;28;20568;-72
2021/12/10 12:28:06;;;;;;;;;;;;;;;3.65;100.00;99623.59;10118846;28;20047;-72
2021/12/10 12:33:25;;;;;;;44.87;20.83;;;;;;;3.64;100.00;99620.06;10112258;28;20281;-73
2021/12/10 12:38:29;;;;;;;39.85;18.98;;;;;;;3.76;100.00;99623.09;10109689;28;20517;-72
2021/12/10 12:43:48;;;;;;;37.60;18.65;;;;;;;3.76;100.00;99633.09;10116315;28;20437;-72
2021/12/10 12:49:05;;;;;;;39.45;17.10;;;;;;;3.81;100.00;99630.31;10107244;28;20047;-70
2021/12/10 12:54:11;;;;;;;39.28;17.48;;;;;;;3.77;100.00;99623.88;10108658;28;20489;-71
2021/12/10 12:59:11;;;;;;;41.70;17.50;;;;;;;3.73;100.00;99628.28;10100182;28;20097;-70
2021/12/10 13:04:15;;;;;;;40.40;18.52;;;;;;;3.67;100.00;99630.28;10116903;28;20082;-71
2021/12/10 13:09:41;;;;;;;40.22;18.90;;;;;;;3.63;100.00;99633.88;10109471;28;20051;-71
2021/12/10 13:14:56;;;;;;;44.53;18.42;;;;;;;3.66;100.00;99635.97;10107764;28;20122;-71
2021/12/10 13:19:54;;;;;;;41.45;17.92;;;;;;;3.65;100.00;99631.69;10108361;28;20038;-70
2021/12/10 13:24:54;;;;;;;44.35;19.63;;;;;;;3.65;100.00;99637.91;10103626;28;20070;-71
2021/12/10 13:29:51;;;;;;;42.20;19.30;;;;;;;3.40;100.00;99649.94;10101481;28;20042;-70
2021/12/10 13:34:48;;;;;;;43.33;18.73;;;;;;;3.40;100.00;99646.44;10103507;28;20106;-71
2021/12/10 13:39:46;;;;;;;39.97;18.75;;;;;;;3.48;100.00;99651.16;10127871;28;20047;-71
2021/12/10 13:44:51;;;;;;;43.90;21.45;;;;;;;3.55;100.00;99663.22;10107066;28;20133;-70
2021/12/10 13:50:02;;;;;;;45.70;19.13;;;;;;;3.52;100.00;99669.19;10109845;28;20047;-71
2021/12/10 13:54:58;;;;;;;42.55;18.85;;;;;;;3.45;100.00;99671.47;10110439;28;20086;-70
2021/12/10 14:00:00;;;;;;;44.05;20.65;;;;;;;3.53;100.00;99673.50;10107635;28;20074;-68
2021/12/10 14:04:59;;;;;;;42.33;18.60;;;;;;;3.54;100.00;99680.50;10104425;28;20047;-72
2021/12/10 14:09:58;;;;;;;41.47;17.73;;;;;;;3.38;100.00;99682.66;10101595;28;20054;-72
2021/12/10 14:15:16;;;;;;;40.97;17.73;;;;;;;3.47;100.00;99680.09;10112874;28;20034;-72
2021/12/10 14:20:19;;;;;;;40.75;18.13;;;;;;;3.45;100.00;99687.69;10101869;28;20050;-72
2021/12/10 14:25:50;;;;;;;46.13;19.20;;;;;;;3.32;100.00;99696.56;10109325;28;20069;-72
2021/12/10 14:31:20;;;;;;;39.65;19.05;;;;;;;3.36;100.00;99694.84;10111051;28;20140;-72
2021/12/10 14:36:20;;;;;;;41.40;17.20;;;;;;;3.19;100.00;99710.81;10117152;28;20053;-72
2021/12/10 14:41:28;;;;;;;43.72;18.33;;;;;;;3.30;100.00;99723.06;10107591;28;20046;-72
2021/12/10 14:46:50;;;;;;;47.10;18.77;;;;;;;3.30;100.00;99728.47;10105551;28;20920;-73
2021/12/10 14:52:06;;;;;;;43.08;18.45;;;;;;;3.26;100.00;99724.75;10099731;28;20050;-73
2021/12/10 14:57:42;;;;;;;33.85;16.70;;;;;;;3.28;100.00;99730.66;10103771;28;20050;-72
2021/12/10 15:03:25;;;;;;;45.35;19.10;;;;;;;3.24;100.00;99737.75;10126669;28;20129;-71
2021/12/10 15:08:50;;;;;;;40.08;17.98;;;;;;;3.22;100.00;99739.94;10107713;28;20046;-72
2021/12/10 15:14:32;;;;;;;42.83;19.08;;;;;;;3.18;100.00;99747.81;10102538;28;20453;-72
2021/12/10 15:19:40;;;;;;;45.92;19.25;;;;;;;3.26;100.00;99751.75;10124187;28;20105;-72
2021/12/10 15:24:45;;;;;;;46.97;20.92;;;;;;;3.21;100.00;99755.34;10119833;28;20528;-72
2021/12/10 15:29:50;;;;;;;48.75;20.77;;;;;;;3.12;100.00;99763.28;10117043;28;20626;-72
2021/12/10 15:34:58;;;;;;;45.17;19.13;;;;;;;3.00;100.00;99768.31;10114910;28;20058;-72
2021/12/10 15:40:00;;;;;;;46.90;19.80;;;;;;;3.15;100.00;99770.81;10124676;28;20509;-71
2021/12/10 15:44:57;;;;;;;47.17;21.30;;;;;;;3.16;100.00;99779.72;10109472;28;20394;-72
2021/12/10 15:49:54;;;;;;;47.20;21.98;;;;;;;3.15;100.00;99780.81;10116742;28;20460;-71
2021/12/10 15:54:55;;;;;;;45.60;19.27;;;;;;;3.16;100.00;99787.84;10122911;28;20039;-72
2021/12/10 15:59:59;;;;;;;46.53;20.42;;;;;;;3.13;100.00;99793.78;10120709;28;20133;-71
2021/12/10 16:05:01;;;;;;;49.00;21.02;;;;;;;3.12;100.00;99798.41;10122706;28;20035;-72
2021/12/10 16:10:39;;;;;;;54.53;23.02;;;;;;;3.14;100.00;99798.13;10122697;28;20133;-72
2021/12/10 16:15:46;;;;;;;46.53;22.02;;;;;;;3.05;100.00;99800.66;10126945;28;20047;-71
2021/12/10 16:20:52;;;;;;;50.30;22.05;;;;;;;3.09;100.00;99800.91;10100350;28;20050;-72
2021/12/10 16:25:55;;;;;;;51.88;22.88;;;;;;;3.13;100.00;99794.63;10104985;28;20078;-73
2021/12/10 16:30:53;;;;;;;;;;;;;;;3.11;100.00;99804.91;10110748;28;20042;-72
2021/12/10 16:35:53;;;;;;;53.00;23.45;;;;;;;3.11;100.00;99807.63;10108713;28;19922;-72
2021/12/10 16:40:54;;;;;;;54.03;24.20;;;;;;;3.09;100.00;99807.09;10105304;28;20131;-72
2021/12/10 16:45:59;;;;;;;57.42;24.45;;;;;;;2.98;100.00;99816.41;10094704;28;20540;-74
2021/12/10 16:51:01;;;;;;;52.47;24.05;;;;;;;3.03;100.00;99821.75;10104198;28;20047;-72
2021/12/10 16:56:02;;;;;;;53.83;24.47;;;;;;;3.06;100.00;99823.84;10125889;28;20209;-72
2021/12/10 17:01:02;;;;;;;50.00;22.40;;;;;;;2.80;100.00;99827.97;10111013;28;20050;-71
2021/12/10 17:05:59;;;;;;;63.60;24.42;;;;;;;2.79;100.00;99837.97;10127938;28;20458;-72
2021/12/10 17:10:59;;;;;;;59.97;24.75;;;;;;;2.98;100.00;99843.41;10128628;28;20039;-71
2021/12/10 17:16:02;;;;;;;56.33;23.70;;;;;;;2.95;100.00;99857.50;10125188;28;20053;-72
2021/12/10 17:21:10;;;;;;;63.30;24.13;;;;;;;2.81;100.00;99861.97;10128227;28;20082;-72
2021/12/10 17:26:13;;;;;;;54.40;26.38;;;;;;;2.85;100.00;99869.19;10114548;28;20108;-72
2021/12/10 17:31:12;;;;;;;;;;;;;;;2.69;100.00;99874.00;10117848;28;20039;-72
2021/12/10 17:36:15;;;;;;;66.55;28.15;;;;;;;2.73;100.00;99871.50;10127769;28;20012;-71
2021/12/10 17:41:15;;;;;;;56.97;25.92;;;;;;;2.76;100.00;99887.13;10114584;28;20097;-72
2021/12/10 17:46:16;;;;;;;61.53;25.85;;;;;;;2.84;100.00;99888.41;10111034;28;20043;-72
2021/12/10 17:51:19;;;;;;;64.10;26.83;;;;;;;2.91;100.00;99894.28;10117443;28;20096;-72
2021/12/10 17:56:17;;;;;;;60.45;26.10;;;;;;;2.91;100.00;99899.66;10107316;28;20093;-72
2021/12/10 18:01:25;;;;;;;59.33;27.33;;;;;;;2.78;100.00;99903.03;10116662;28;20554;-72
2021/12/10 18:06:27;;;;;;;58.35;25.38;;;;;;;2.84;100.00;99902.72;10113266;28;20081;-71
2021/12/10 18:11:24;;;;;;;57.30;24.75;;;;;;;2.87;100.00;99917.53;10119590;28;20634;-71
2021/12/10 18:16:25;;;;;;;63.20;26.52;;;;;;;2.86;100.00;99924.84;10112396;28;20042;-71
2021/12/10 18:21:33;;;;;;;64.28;25.85;;;;;;;2.74;100.00;99930.63;10114753;28;20050;-71
2021/12/10 18:26:36;;;;;;;56.55;24.33;;;;;;;2.80;100.00;99930.56;10119564;28;20050;-72
2021/12/10 18:31:38;;;;;;;63.28;26.65;;;;;;;2.81;100.00;99937.56;10131629;28;20047;-71
2021/12/10 18:36:35;;;;;;;66.20;26.67;;;;;;;2.83;100.00;99940.78;10112830;28;20101;-71
2021/12/10 18:41:32;;;;;;;63.78;28.95;;;;;;;2.78;100.00;99941.63;10120516;28;20051;-71
2021/12/10 18:46:29;;;;;;;72.72;29.55;;;;;;;2.71;100.00;99955.47;10104876;28;20074;-70
2021/12/10 18:51:31;;;;;;;63.70;28.05;;;;;;;2.67;100.00;99959.84;10115915;28;20057;-70
2021/12/10 18:56:35;;;;;;;62.42;27.75;;;;;;;2.71;100.00;99971.66;10102040;28;20082;-70
2021/12/10 19:01:36;;;;;;;62.97;28.98;;;;;;;2.78;100.00;99965.13;10099229;28;20050;-71
2021/12/10 19:06:40;;;;;;;71.75;30.73;;;;;;;2.71;100.00;99977.06;10091843;28;20082;-73
2021/12/10 19:11:39;;;;;;;72.70;31.75;;;;;;;2.55;100.00;99978.28;10105542;28;20066;-72
2021/12/10 19:16:41;;;;;;;71.95;30.23;;;;;;;2.64;100.00;99976.59;10081768;28;20666;-72
2021/12/10 19:22:00;;;;;;;72.32;30.05;;;;;;;2.68;100.00;99983.03;10094946;28;20051;-72
2021/12/10 19:27:02;;;;;;;66.45;29.67;;;;;;;2.57;100.00;99992.28;10117892;28;20070;-72
2021/12/10 19:32:13;;;;;;;73.00;31.95;;;;;;;2.63;100.00;99991.19;10096544;28;20050;-72
2021/12/10 19:37:24;;;;;;;72.78;30.77;;;;;;;2.59;100.00;100009.00;10097194;28;20141;-72
2021/12/10 19:42:30;;;;;;;69.63;29.65;;;;;;;2.50;100.00;100013.41;10096809;28;20050;-73
2021/12/10 19:47:33;;;;;;;71.32;31.55;;;;;;;2.57;100.00;100019.28;10098238;28;20047;-72
2021/12/10 19:52:34;;;;;;;76.20;31.65;;;;;;;2.62;100.00;100021.97;10107122;28;20126;-71
2021/12/10 19:57:41;;;;;;;70.75;28.40;;;;;;;2.56;100.00;100033.88;10082281;28;20070;-72
2021/12/10 20:02:46;;;;;;;74.18;30.50;;;;;;;2.45;100.00;100037.72;10104503;28;20126;-72
2021/12/10 20:07:47;;;;;;;66.75;30.38;;;;;;;2.61;100.00;100044.63;10106853;28;20051;-72
2021/12/10 20:12:49;;;;;;;74.22;29.35;;;;;;;2.61;100.00;100052.72;10101657;28;20070;-72
2021/12/10 20:17:50;;;;;;;73.78;32.03;;;;;;;2.51;100.00;100058.22;10104708;28;20050;-72
2021/12/10 20:22:52;;;;;;;72.72;31.30;;;;;;;2.50;100.00;100072.78;10098620;28;20046;-72
2021/12/10 20:28:04;;;;;;;70.18;29.48;;;;;;;2.49;100.00;100084.66;10116812;28;20141;-72
2021/12/10 20:33:09;;;;;;;71.03;30.30;;;;;;;2.53;100.00;100083.03;10087542;28;20469;-71
2021/12/10 20:38:12;;;;;;;67.45;30.55;;;;;;;2.55;100.00;100082.72;10111438;28;20051;-71
2021/12/10 20:43:19;;;;;;;74.47;30.50;;;;;;;2.55;100.00;100086.22;10105589;28;20054;-72
2021/12/10 20:48:20;;;;;;;64.85;28.60;;;;;;;2.54;100.00;100095.41;10097825;28;20042;-72
2021/12/10 20:53:33;;;;;;;68.40;29.80;;;;;;;2.52;100.00;100100.28;10106886;28;20066;-72
2021/12/10 20:58:47;;;;;;;74.75;31.48;;;;;;;2.63;100.00;100107.25;10107073;28;20046;-68
2021/12/10 21:03:49;;;;;;;64.00;28.98;;;;;;;2.68;100.00;100118.00;10099181;28;20142;-69
2021/12/10 21:08:53;;;;;;;69.93;31.27;;;;;;;2.74;100.00;100127.69;10097441;28;20053;-68
2021/12/10 21:13:56;;;;;;;67.38;28.33;;;;;;;2.77;100.00;100125.53;10103013;28;20571;-72
2021/12/10 21:18:57;;;;;;;63.10;28.45;;;;;;;2.74;100.00;100127.69;10096913;28;20047;-71
2021/12/10 21:24:19;;;;;;;61.47;28.58;;;;;;;2.69;100.00;100135.81;10109037;28;20133;-70
2021/12/10 21:29:28;;;;;;;75.60;30.58;;;;;;;2.67;100.00;100145.25;10104881;28;20038;-72
2021/12/10 21:34:41;;;;;;;65.20;30.02;;;;;;;2.62;100.00;100162.31;10102508;28;20484;-72
2021/12/10 21:40:09;;;;;;;70.47;30.15;;;;;;;2.59;100.00;100162.84;10115647;28;20054;-71
2021/12/10 21:45:19;;;;;;;71.87;30.23;;;;;;;2.56;100.00;100166.13;10080354;28;20532;-70
2021/12/10 21:50:21;;;;;;;64.60;29.33;;;;;;;2.55;100.00;100177.97;10080556;28;20084;-70
2021/12/10 21:55:25;;;;;;;66.63;28.50;;;;;;;2.58;100.00;100182.03;10082885;28;20047;-70
2021/12/10 22:00:36;;;;;;;65.18;28.10;;;;;;;2.57;100.00;100178.50;10081967;28;20065;-70
2021/12/10 22:06:05;;;;;;;68.88;28.77;;;;;;;2.64;100.00;100192.50;10094551;28;20049;-70
2021/12/10 22:11:04;;;;;;;59.30;28.00;;;;;;;2.62;100.00;100204.69;10080203;28;20070;-71
2021/12/10 22:16:08;;;;;;;67.38;27.42;;;;;;;2.61;100.00;100213.88;10109339;28;20063;-73
2021/12/10 22:21:11;;;;;;;63.22;29.10;;;;;;;2.61;100.00;100220.06;10099182;28;20046;-71
2021/12/10 22:26:12;;;;;;;65.18;29.33;;;;;;;2.58;100.00;100231.44;10102372;28;20134;-72
2021/12/10 22:31:25;;;;;;;71.38;31.38;;;;;;;2.60;100.00;100231.97;10100855;28;20557;-73
2021/12/10 22:36:34;;;;;;;64.82;28.52;;;;;;;2.65;100.00;100242.72;10093066;28;20050;-72
2021/12/10 22:41:41;;;;;;;70.03;30.48;;;;;;;2.62;100.00;100254.09;10110726;28;20137;-71
2021/12/10 22:46:42;;;;;;;65.50;30.23;;;;;;;2.67;100.00;100264.03;10103074;28;20047;-71
2021/12/10 22:52:07;;;;;;;68.03;30.80;;;;;;;2.66;100.00;100270.53;10088234;28;20308;-73
2021/12/10 22:57:09;;;;;;;70.45;31.88;;;;;;;2.67;100.00;100278.38;10086962;28;20155;-71
2021/12/10 23:02:14;;;;;;;79.80;31.00;;;;;;;2.70;100.00;100282.41;10100173;28;20046;-71
2021/12/10 23:12:33;;;;;;;66.93;29.92;;;;;;;2.67;100.00;100289.16;10111514;28;20051;-70
2021/12/10 23:17:50;;;;;;;66.07;28.65;;;;;;;2.72;100.00;100291.84;10108287;28;20066;-72
2021/12/10 23:22:46;;;;;;;70.18;31.05;;;;;;;2.80;100.00;100297.75;10121138;28;20066;-71